Accueil
METAR-TAF:

METAR-TAF

Aéroports :

Newquay Cornwall, Angleterre

Aéroport de Newquay Cornouailles

latitude: 50-26N, longitude: 005-00W, altitude: 119 m

Observation

Le bulletin a été fait il y a 2 heures et 41 minutes, à 19:50 UTC
Vent 12 kt de nord-ouest
Température 8°C
Humidité 76%
Pression 1021 hPa
Visibilité 10 km ou plus
Nuages épars à une hauteur de 2000 ft
Nuages épars à une hauteur de 3500 ft

METAR: EGHQ 271950Z 31012KT 9999 SCT020 SCT035 08/04 Q1021

Heure: 23:31 (22:31 UTC)

Prévision

Le bulletin a été fait il y a 5 heures et 28 minutes, à 17:03 UTC
Prévision valable du 27 à 18 UTC au 27 à 21 UTC
Vent 9 kt de nord/nord-ouest
Visibilité 10 km ou plus
Quelques nuages à une hauteur de 4500 ft

TAF: EGHQ 271703Z 2718/2721 33009KT 9999 FEW045

Observations et prévisions météorologiques de plus de 4000 aéroports (messages METAR et TAF).

Les stations disponibles sont représentées par des disques jaunes et rouges sur la carte.

Passer la souris dessus pour voir le nom de la station.

Cliquer dessus pour voir les observations et prévisions météorologiques.

Pour changer de carte: cliquez sur les boutons verts avec une croix noire pour zoomer, sur le bouton vert avec un tiret pour effectuer un zoom arrière, ou sur les flèches vertes pour les cartes adjacentes.


METAR-TAF: